Strona główna
METAR-TAF:

METAR-TAF

Lotnisko :

Willoughby, Ohio, Stany Zjednoczone

Szerokość geograficzna: 41-41-02N, Długość geograficzna: 081-23-23W, wysokość: 191 m

Aktualna obserwacja pogody

Raport powstał 27 minut temu, godzina 01:55 UTC
Wiatr 11 kt od północ w porywach dochodzący do 15 kt
Temperatura 20°C
Wilgotność 68%
Ciśnienie 1016 hPa
Widzialność: 16.1 km
Rozproszone chmury na wysokości 7000 ft

METAR: KLNN 240155Z AUTO 36011G15KT 10SM SCT070 20/14 A3000 RMK AO1 T02000140

czas: 22:22 (02:22 UTC)


TAF: brakujący

Obserwacja i prognoza pogody dla ponad 4000 lotnisk (raport METAR i TAF).

Dostępne stacje oznaczono żółtymi i czerwonymi punktami na mapie.

Najedź kursorem aby zobaczyć nazwę stacji.

Kliknij aby zobaczyć obserwacje i prognozy pogody.

Aby zmienić mapę: kliknij na zielony przycisk z czarnym krzyżykiem, aby powiększyć; na zielony przycisk z myślnikiem, aby pomniejszyć; na zielone strzałki, aby przejść do map sąsiednich.


METAR-TAF: